createdAt,value
2023-05-02T04:00:41.471Z,10.64
2023-05-02T04:01:42.442Z,10.60
2023-05-02T04:02:42.540Z,10.63
2023-05-02T04:03:42.449Z,10.64
2023-05-02T04:04:42.454Z,10.63
2023-05-02T04:05:42.413Z,10.63
2023-05-02T04:06:42.392Z,10.66
2023-05-02T04:07:42.366Z,10.61
2023-05-02T04:08:42.342Z,10.60
2023-05-02T04:09:42.382Z,10.61
2023-05-02T04:10:42.356Z,10.61
2023-05-02T04:11:42.330Z,10.63
2023-05-02T04:12:42.301Z,10.64
2023-05-02T04:13:42.312Z,10.64
2023-05-02T04:14:42.286Z,10.61
2023-05-02T04:15:42.274Z,10.60
2023-05-02T04:16:42.323Z,10.59
2023-05-02T04:17:42.273Z,10.60
2023-05-02T04:18:42.235Z,10.60
2023-05-02T04:19:42.240Z,10.61
2023-05-02T04:20:42.228Z,10.63
2023-05-02T04:21:42.233Z,10.61
2023-05-02T04:22:42.191Z,10.63
2023-05-02T04:23:42.189Z,10.66
2023-05-02T04:24:42.178Z,10.64
2023-05-02T04:25:42.178Z,10.63
2023-05-02T04:26:42.150Z,10.63
2023-05-02T04:27:42.148Z,10.60
2023-05-02T04:28:42.128Z,10.60
2023-05-02T04:29:42.140Z,10.60
2023-05-02T04:30:42.177Z,10.60
2023-05-02T04:31:42.092Z,10.55
2023-05-02T04:32:42.118Z,10.53
2023-05-02T04:33:42.088Z,10.53
2023-05-02T04:34:42.069Z,10.52
2023-05-02T04:35:42.106Z,10.56
2023-05-02T04:36:42.028Z,10.55
2023-05-02T04:37:42.051Z,10.53
2023-05-02T04:38:42.032Z,10.59
2023-05-02T04:39:42.023Z,10.63
2023-05-02T04:40:42.048Z,10.63
2023-05-02T04:41:41.994Z,10.56
2023-05-02T04:42:42.016Z,10.59
2023-05-02T04:43:41.978Z,10.60
2023-05-02T04:44:41.954Z,10.59
2023-05-02T04:45:41.987Z,10.53
2023-05-02T04:46:41.988Z,10.56
2023-05-02T04:47:41.952Z,10.56
2023-05-02T04:48:41.950Z,10.59
2023-05-02T04:49:41.937Z,10.56
2023-05-02T04:50:41.902Z,10.52
2023-05-02T04:51:41.938Z,10.52
2023-05-02T04:52:41.874Z,10.51
2023-05-02T04:53:41.865Z,10.52
2023-05-02T04:54:41.852Z,10.52
2023-05-02T04:55:41.857Z,10.51
2023-05-02T04:56:41.830Z,10.53
2023-05-02T04:57:41.827Z,10.53
2023-05-02T04:58:41.805Z,10.47
2023-05-02T04:59:41.813Z,10.48
2023-05-02T05:00:41.806Z,10.52
2023-05-02T05:01:41.807Z,10.52
2023-05-02T05:02:41.817Z,10.55
2023-05-02T05:03:41.845Z,10.55
2023-05-02T05:04:41.748Z,10.52
2023-05-02T05:05:41.829Z,10.52
2023-05-02T05:06:41.791Z,10.56
2023-05-02T05:07:41.711Z,10.53
2023-05-02T05:08:41.710Z,10.51
2023-05-02T05:09:41.710Z,10.48
2023-05-02T05:10:41.697Z,10.51
2023-05-02T05:11:41.669Z,10.51
2023-05-02T05:12:41.659Z,10.53
2023-05-02T05:13:41.662Z,10.60
2023-05-02T05:14:41.646Z,10.59
2023-05-02T05:15:41.647Z,10.52
2023-05-02T05:16:41.842Z,10.51
2023-05-02T05:17:41.618Z,10.51
2023-05-02T05:18:41.595Z,10.52
2023-05-02T05:19:41.607Z,10.53
2023-05-02T05:20:41.615Z,10.55
2023-05-02T05:21:41.586Z,10.47
2023-05-02T05:22:41.552Z,10.48
2023-05-02T05:23:41.544Z,10.48
2023-05-02T05:24:41.538Z,10.53
2023-05-02T05:25:42.939Z,10.56
2023-05-02T05:26:41.519Z,10.48
2023-05-02T05:27:41.509Z,10.51
2023-05-02T05:28:41.491Z,10.55
2023-05-02T05:29:41.485Z,10.53
2023-05-02T05:30:41.506Z,10.47
2023-05-02T05:31:41.478Z,10.47
2023-05-02T05:32:41.497Z,10.51
2023-05-02T05:33:41.524Z,10.53
2023-05-02T05:34:41.466Z,10.59
2023-05-02T05:35:41.438Z,10.59
2023-05-02T05:36:41.417Z,10.61
2023-05-02T05:37:41.395Z,10.60
2023-05-02T05:38:41.390Z,10.59
2023-05-02T05:39:41.379Z,10.61
2023-05-02T05:40:41.357Z,10.67
2023-05-02T05:41:41.377Z,10.60
2023-05-02T05:42:41.434Z,10.64
2023-05-02T05:43:41.351Z,10.71
2023-05-02T05:44:41.334Z,10.71
2023-05-02T05:45:41.341Z,10.71
2023-05-02T05:46:41.446Z,10.68
2023-05-02T05:47:41.366Z,10.64
2023-05-02T05:48:41.309Z,10.60
2023-05-02T05:49:41.357Z,10.56
2023-05-02T05:50:41.275Z,10.45
2023-05-02T05:51:41.276Z,10.29
2023-05-02T05:52:41.264Z,10.14
2023-05-02T05:53:41.249Z,10.07
2023-05-02T05:54:41.226Z,9.99
2023-05-02T05:55:42.348Z,9.94
2023-05-02T05:56:41.230Z,9.93
2023-05-02T05:57:41.206Z,9.96
2023-05-02T05:58:41.184Z,9.93
2023-05-02T05:59:41.164Z,9.97
2023-05-02T06:00:41.149Z,9.97
2023-05-02T06:01:41.166Z,9.96
2023-05-02T06:02:41.245Z,10.02
2023-05-02T06:03:41.330Z,9.99
2023-05-02T06:04:41.137Z,10.02
2023-05-02T06:05:41.114Z,10.14
2023-05-02T06:06:41.152Z,10.12
2023-05-02T06:07:41.100Z,10.15
2023-05-02T06:08:41.068Z,10.17
2023-05-02T06:09:41.072Z,10.14
2023-05-02T06:10:41.067Z,10.15
2023-05-02T06:11:41.063Z,10.18
2023-05-02T06:12:41.030Z,10.26
2023-05-02T06:13:41.024Z,10.30
2023-05-02T06:14:41.002Z,10.38
2023-05-02T06:15:41.029Z,10.45
2023-05-02T06:16:41.068Z,10.45
2023-05-02T06:17:41.017Z,10.30
2023-05-02T06:18:40.954Z,10.27
2023-05-02T06:19:40.958Z,10.30
2023-05-02T06:20:40.953Z,10.26
2023-05-02T06:21:40.984Z,10.26
2023-05-02T06:22:40.918Z,10.25
2023-05-02T06:23:40.906Z,10.29
2023-05-02T06:24:40.892Z,10.34
2023-05-02T06:25:40.901Z,10.41
2023-05-02T06:26:40.890Z,10.47
2023-05-02T06:27:40.870Z,10.45
2023-05-02T06:28:40.867Z,10.38
2023-05-02T06:29:40.855Z,10.41
2023-05-02T06:30:40.872Z,10.36
2023-05-02T06:31:40.888Z,10.42
2023-05-02T06:32:40.880Z,10.51
2023-05-02T06:33:40.799Z,10.64
2023-05-02T06:34:40.782Z,10.74
2023-05-02T06:35:40.826Z,10.73
2023-05-02T06:36:40.784Z,10.82
2023-05-02T06:37:40.772Z,10.82
2023-05-02T06:38:40.754Z,10.97
2023-05-02T06:39:40.749Z,11.02
2023-05-02T06:40:40.722Z,11.06
2023-05-02T06:41:40.734Z,11.06
2023-05-02T06:42:40.712Z,11.19
2023-05-02T06:43:40.698Z,11.18
2023-05-02T06:44:40.675Z,11.07
2023-05-02T06:45:40.668Z,11.18
2023-05-02T06:46:40.700Z,11.21
2023-05-02T06:47:40.691Z,11.15
2023-05-02T06:48:40.640Z,11.18
2023-05-02T06:49:40.642Z,11.14
2023-05-02T06:50:40.614Z,11.10
2023-05-02T06:51:40.649Z,11.06
2023-05-02T06:52:40.589Z,10.92
2023-05-02T06:53:40.588Z,10.96
2023-05-02T06:54:40.569Z,10.89
2023-05-02T06:55:40.577Z,10.97
2023-05-02T06:56:40.590Z,10.89
2023-05-02T06:57:40.549Z,10.91
2023-05-02T06:58:40.540Z,10.91
2023-05-02T06:59:40.520Z,10.88
2023-05-02T07:00:40.540Z,10.81
2023-05-02T07:01:40.556Z,10.71
2023-05-02T07:02:40.516Z,10.74
2023-05-02T07:03:40.514Z,10.70
2023-05-02T07:04:40.520Z,10.66
2023-05-02T07:05:40.458Z,10.63
2023-05-02T07:06:40.504Z,10.63
2023-05-02T07:07:40.456Z,10.59
2023-05-02T07:08:40.429Z,10.56
2023-05-02T07:09:40.436Z,10.61
2023-05-02T07:10:40.428Z,10.68
2023-05-02T07:11:40.502Z,10.63
2023-05-02T07:12:40.406Z,10.63
2023-05-02T07:13:40.383Z,10.63
2023-05-02T07:14:40.390Z,10.64
2023-05-02T07:15:40.434Z,10.61
2023-05-02T07:16:40.575Z,10.61
2023-05-02T07:17:40.366Z,10.56
2023-05-02T07:18:40.324Z,10.51
2023-05-02T07:19:40.314Z,10.47
2023-05-02T07:20:40.294Z,10.40
2023-05-02T07:21:40.341Z,10.34
2023-05-02T07:22:40.285Z,10.22
2023-05-02T07:23:40.277Z,10.07
2023-05-02T07:24:40.272Z,9.93
2023-05-02T07:25:40.272Z,9.87
2023-05-02T07:26:40.244Z,9.69
2023-05-02T07:27:40.233Z,9.58
2023-05-02T07:28:40.207Z,9.60
2023-05-02T07:29:40.208Z,9.56
2023-05-02T07:30:40.197Z,9.53
2023-05-02T07:31:40.220Z,9.51
2023-05-02T07:32:40.191Z,9.54
2023-05-02T07:33:40.195Z,9.51
2023-05-02T07:34:40.152Z,9.46
2023-05-02T07:35:40.146Z,9.47
2023-05-02T07:36:40.162Z,9.33
2023-05-02T07:37:40.129Z,9.39
2023-05-02T07:38:40.111Z,9.32
2023-05-02T07:39:40.105Z,9.23
2023-05-02T07:40:40.105Z,9.20
2023-05-02T07:41:40.107Z,9.14
2023-05-02T07:42:40.077Z,9.11
2023-05-02T07:43:40.071Z,9.08
2023-05-02T07:44:40.054Z,9.01
2023-05-02T07:45:40.060Z,9.01
2023-05-02T07:46:40.173Z,8.96
2023-05-02T07:47:40.014Z,8.92
2023-05-02T07:48:39.997Z,8.87
2023-05-02T07:49:39.993Z,8.89
2023-05-02T07:50:39.984Z,8.79
2023-05-02T07:51:39.991Z,8.81
2023-05-02T07:52:40.007Z,8.68
2023-05-02T07:53:39.957Z,8.55
2023-05-02T07:54:39.938Z,8.47
2023-05-02T07:55:39.927Z,8.55
2023-05-02T07:56:39.933Z,8.47
2023-05-02T07:57:39.909Z,8.43
2023-05-02T07:58:39.904Z,8.40
2023-05-02T07:59:39.883Z,8.33
2023-05-02T08:00:39.886Z,8.38
2023-05-02T08:01:39.882Z,8.30
2023-05-02T08:02:39.959Z,8.23
2023-05-02T08:03:40.021Z,8.19
2023-05-02T08:04:39.902Z,8.07
2023-05-02T08:05:39.847Z,8.05
2023-05-02T08:06:39.873Z,8.15
2023-05-02T08:07:39.872Z,8.19
2023-05-02T08:08:39.785Z,8.12
2023-05-02T08:09:39.793Z,8.16
2023-05-02T08:10:39.844Z,8.23
2023-05-02T08:11:39.754Z,8.26
2023-05-02T08:12:39.783Z,8.29
2023-05-02T08:13:39.726Z,8.29
2023-05-02T08:14:39.730Z,8.34
2023-05-02T08:15:39.816Z,8.43
2023-05-02T08:16:39.761Z,8.45
2023-05-02T08:17:39.753Z,8.50
2023-05-02T08:18:39.684Z,8.59
2023-05-02T08:19:39.666Z,8.61
2023-05-02T08:20:39.697Z,8.52
2023-05-02T08:21:39.645Z,8.52
2023-05-02T08:22:39.659Z,8.61
2023-05-02T08:23:39.617Z,8.58
2023-05-02T08:24:39.628Z,8.68
2023-05-02T08:25:39.640Z,8.80
2023-05-02T08:26:39.630Z,8.95
2023-05-02T08:27:39.603Z,9.04
2023-05-02T08:28:39.578Z,8.96
2023-05-02T08:29:39.558Z,9.10
2023-05-02T08:30:39.574Z,8.98
2023-05-02T08:31:39.591Z,8.96
2023-05-02T08:32:39.574Z,9.04
2023-05-02T08:33:39.521Z,9.08
2023-05-02T08:34:39.518Z,9.02
2023-05-02T08:35:39.513Z,8.98
2023-05-02T08:36:39.687Z,8.95
2023-05-02T08:37:39.470Z,8.92
2023-05-02T08:38:39.474Z,8.94
2023-05-02T08:39:39.455Z,8.99
2023-05-02T08:40:42.885Z,9.08
2023-05-02T08:41:39.471Z,9.02
2023-05-02T08:42:39.443Z,8.95
2023-05-02T08:43:39.433Z,9.05
2023-05-02T08:44:39.403Z,9.21
2023-05-02T08:45:39.377Z,9.11
2023-05-02T08:46:39.437Z,9.13
2023-05-02T08:47:39.375Z,9.02
2023-05-02T08:48:39.414Z,9.17
2023-05-02T08:49:39.367Z,9.08
2023-05-02T08:50:39.331Z,9.02
2023-05-02T08:51:40.391Z,8.86
2023-05-02T08:52:39.303Z,8.92
2023-05-02T08:53:39.463Z,8.86
2023-05-02T08:54:39.313Z,9.04
2023-05-02T08:55:39.288Z,8.99
2023-05-02T08:56:39.300Z,9.11
2023-05-02T08:57:39.297Z,9.21
2023-05-02T08:58:39.244Z,9.24
2023-05-02T08:59:39.248Z,9.31
2023-05-02T09:00:39.231Z,9.32
2023-05-02T09:01:39.296Z,9.36
2023-05-02T09:02:39.293Z,9.23
2023-05-02T09:03:39.216Z,9.11
2023-05-02T09:04:39.233Z,9.28
2023-05-02T09:05:39.156Z,9.33
2023-05-02T09:06:39.229Z,9.42
2023-05-02T09:07:39.173Z,9.31
2023-05-02T09:08:39.151Z,9.26
2023-05-02T09:09:39.141Z,9.11
2023-05-02T09:10:39.161Z,9.24
2023-05-02T09:11:39.097Z,9.31
2023-05-02T09:12:39.251Z,9.35
2023-05-02T09:13:39.087Z,9.24
2023-05-02T09:14:39.069Z,9.13
2023-05-02T09:15:39.134Z,9.11
2023-05-02T09:16:39.137Z,9.18
2023-05-02T09:17:39.105Z,9.13
2023-05-02T09:18:39.060Z,9.14
2023-05-02T09:19:39.033Z,9.17
2023-05-02T09:20:39.223Z,9.08
2023-05-02T09:21:38.993Z,8.99
2023-05-02T09:22:38.997Z,9.01
2023-05-02T09:23:38.992Z,9.08
2023-05-02T09:24:39.027Z,9.23
2023-05-02T09:25:38.978Z,9.17
2023-05-02T09:26:39.015Z,8.98
2023-05-02T09:27:38.946Z,8.95
2023-05-02T09:28:38.957Z,8.99
2023-05-02T09:29:39.149Z,8.91
2023-05-02T09:30:38.971Z,9.08
2023-05-02T09:32:38.919Z,9.20
2023-05-02T09:33:39.033Z,9.17
2023-05-02T09:34:38.880Z,9.11
2023-05-02T09:35:39.153Z,8.99
2023-05-02T09:36:38.845Z,9.21
2023-05-02T09:37:38.851Z,9.36
2023-05-02T09:38:38.814Z,9.64
2023-05-02T09:39:38.817Z,9.87
2023-05-02T09:40:38.801Z,9.97
2023-05-02T09:41:38.791Z,10.23
2023-05-02T09:42:38.774Z,10.45
2023-05-02T09:43:38.776Z,10.70
2023-05-02T09:44:39.362Z,11.00
2023-05-02T09:45:38.757Z,11.18
2023-05-02T09:46:38.798Z,11.11
2023-05-02T09:47:38.887Z,10.88
2023-05-02T09:48:38.710Z,10.60
2023-05-02T09:49:38.713Z,10.48
2023-05-02T09:50:38.708Z,10.42
2023-05-02T09:51:38.693Z,10.63
2023-05-02T09:52:38.658Z,10.81
2023-05-02T09:53:38.644Z,11.09
2023-05-02T09:54:38.682Z,11.06
2023-05-02T09:55:38.643Z,10.73
2023-05-02T09:56:38.638Z,10.84
2023-05-02T09:57:38.616Z,11.07
2023-05-02T09:58:38.589Z,11.14
2023-05-02T09:59:38.630Z,11.36
2023-05-02T10:00:38.590Z,11.57
2023-05-02T10:01:38.666Z,11.29
2023-05-02T10:02:38.602Z,11.27
2023-05-02T10:03:38.576Z,10.91
2023-05-02T10:04:38.608Z,11.28
2023-05-02T10:05:38.570Z,11.43
2023-05-02T10:06:38.550Z,11.25
2023-05-02T10:07:38.515Z,11.21
2023-05-02T10:08:38.489Z,11.21
2023-05-02T10:09:38.486Z,11.14
2023-05-02T10:10:38.726Z,11.24
2023-05-02T10:11:38.470Z,11.25
2023-05-02T10:12:38.454Z,11.67
2023-05-02T10:13:38.449Z,11.85
2023-05-02T10:14:38.422Z,12.45
2023-05-02T10:15:38.475Z,12.35
2023-05-02T10:16:38.402Z,12.07
2023-05-02T10:17:38.414Z,12.14
2023-05-02T10:18:38.393Z,11.96
2023-05-02T10:19:38.371Z,11.82
2023-05-02T10:20:38.374Z,11.55
2023-05-02T10:21:38.345Z,11.54
2023-05-02T10:22:38.358Z,11.60
2023-05-02T10:23:38.336Z,11.47
2023-05-02T10:24:38.342Z,11.64
2023-05-02T10:25:38.348Z,11.57
2023-05-02T10:26:38.307Z,11.52
2023-05-02T10:27:38.277Z,11.55
2023-05-02T10:28:38.271Z,11.40
2023-05-02T10:29:38.263Z,11.52
2023-05-02T10:30:38.285Z,11.46
2023-05-02T10:31:38.281Z,11.36
2023-05-02T10:32:38.282Z,11.37
2023-05-02T10:33:38.224Z,11.25
2023-05-02T10:34:38.227Z,11.06
2023-05-02T10:35:38.213Z,10.88
2023-05-02T10:36:38.190Z,10.71
2023-05-02T10:37:38.190Z,10.61
2023-05-02T10:38:38.187Z,10.78
2023-05-02T10:39:38.144Z,10.89
2023-05-02T10:40:38.182Z,11.10
2023-05-02T10:41:38.115Z,11.10
2023-05-02T10:42:38.115Z,11.10
2023-05-02T10:43:38.104Z,11.18
2023-05-02T10:44:38.114Z,11.27
2023-05-02T10:45:38.127Z,11.72
2023-05-02T10:46:38.138Z,12.20
2023-05-02T10:47:38.084Z,11.95
2023-05-02T10:48:38.074Z,11.99
2023-05-02T10:49:38.037Z,11.78
2023-05-02T10:50:38.035Z,12.02
2023-05-02T10:51:38.023Z,12.17
2023-05-02T10:52:38.037Z,12.24
2023-05-02T10:53:37.998Z,12.59
2023-05-02T10:54:37.982Z,12.86
2023-05-02T10:55:37.983Z,13.25
2023-05-02T10:56:37.983Z,13.38
2023-05-02T10:57:38.075Z,13.11
2023-05-02T10:58:37.939Z,13.01
2023-05-02T10:59:38.136Z,12.74
2023-05-02T11:00:37.952Z,12.57
2023-05-02T11:01:37.946Z,12.46
2023-05-02T11:02:38.012Z,12.41
2023-05-02T11:03:37.957Z,11.75
2023-05-02T11:04:37.869Z,11.49
2023-05-02T11:05:37.872Z,11.54
2023-05-02T11:06:37.875Z,11.39
2023-05-02T11:07:37.841Z,11.25
2023-05-02T11:08:37.827Z,11.21
2023-05-02T11:09:37.826Z,11.14
2023-05-02T11:10:37.836Z,11.00
2023-05-02T11:11:37.803Z,10.89
2023-05-02T11:12:37.806Z,10.88
2023-05-02T11:13:37.775Z,10.91
2023-05-02T11:14:37.787Z,11.06
2023-05-02T11:15:37.794Z,11.36
2023-05-02T11:16:37.787Z,11.54
2023-05-02T11:17:37.756Z,11.83
2023-05-02T11:18:37.732Z,11.99
2023-05-02T11:19:37.712Z,12.24
2023-05-02T11:20:37.717Z,11.90
2023-05-02T11:21:37.713Z,11.91
2023-05-02T11:22:37.692Z,11.96
2023-05-02T11:23:37.666Z,11.91
2023-05-02T11:24:37.684Z,11.91
2023-05-02T11:25:37.649Z,11.61
2023-05-02T11:26:37.679Z,11.60
2023-05-02T11:27:37.624Z,11.39
2023-05-02T11:28:37.681Z,11.37
2023-05-02T11:29:37.603Z,11.37
2023-05-02T11:30:37.582Z,11.33
2023-05-02T11:31:37.605Z,11.36
2023-05-02T11:32:37.607Z,11.29
2023-05-02T11:33:37.565Z,11.09
2023-05-02T11:34:37.535Z,11.10
2023-05-02T11:35:37.538Z,11.11
2023-05-02T11:36:37.612Z,11.14
2023-05-02T11:37:37.503Z,11.03
2023-05-02T11:38:37.512Z,11.14
2023-05-02T11:39:37.514Z,11.40
2023-05-02T11:40:37.502Z,11.64
2023-05-02T11:41:37.469Z,12.02
2023-05-02T11:42:37.452Z,12.23
2023-05-02T11:43:37.439Z,12.42
2023-05-02T11:44:37.466Z,12.56
2023-05-02T11:45:37.416Z,12.67
2023-05-02T11:46:37.542Z,12.71
2023-05-02T11:47:37.447Z,12.62
2023-05-02T11:48:37.385Z,12.74
2023-05-02T11:49:37.383Z,12.67
2023-05-02T11:50:37.733Z,12.46
2023-05-02T11:51:37.415Z,12.50
2023-05-02T11:52:37.349Z,12.49
2023-05-02T11:53:37.324Z,12.57
2023-05-02T11:54:37.451Z,12.75
2023-05-02T11:55:37.319Z,12.85
2023-05-02T11:56:37.343Z,12.50
2023-05-02T11:57:37.294Z,12.29
2023-05-02T11:58:37.272Z,12.27
2023-05-02T11:59:37.267Z,12.14
2023-05-02T12:00:37.247Z,11.61
2023-05-02T12:01:37.253Z,11.54
2023-05-02T12:02:37.369Z,11.25
2023-05-02T12:03:37.273Z,11.21
2023-05-02T12:04:37.204Z,11.06
2023-05-02T12:05:37.205Z,10.74
2023-05-02T12:06:37.276Z,10.81
2023-05-02T12:07:37.198Z,10.79
2023-05-02T12:08:37.169Z,10.86
2023-05-02T12:09:37.158Z,10.94
2023-05-02T12:10:37.150Z,11.06
2023-05-02T12:11:37.154Z,11.00
2023-05-02T12:12:37.117Z,10.99
2023-05-02T12:13:37.117Z,11.07
2023-05-02T12:14:37.088Z,11.35
2023-05-02T12:15:37.142Z,11.37
2023-05-02T12:16:37.212Z,11.43
2023-05-02T12:17:37.088Z,11.65
2023-05-02T12:18:37.046Z,11.65
2023-05-02T12:19:37.040Z,11.95
2023-05-02T12:20:37.051Z,12.20
2023-05-02T12:21:37.051Z,12.56
2023-05-02T12:22:37.009Z,12.27
2023-05-02T12:23:37.693Z,12.28
2023-05-02T12:24:36.998Z,12.38
2023-05-02T12:25:37.019Z,13.05
2023-05-02T12:26:37.020Z,13.26
2023-05-02T12:27:36.954Z,13.87
2023-05-02T12:28:36.950Z,14.04
2023-05-02T12:29:36.952Z,14.00
2023-05-02T12:30:36.927Z,13.73
2023-05-02T12:31:36.980Z,13.03
2023-05-02T12:32:36.933Z,12.42
2023-05-02T12:33:36.896Z,12.50
2023-05-02T12:34:36.892Z,12.62
2023-05-02T12:35:36.867Z,13.26
2023-05-02T12:36:36.904Z,13.88
2023-05-02T12:37:36.871Z,14.20
2023-05-02T12:38:36.838Z,15.28
2023-05-02T12:39:36.853Z,15.21
2023-05-02T12:40:36.809Z,14.72
2023-05-02T12:41:36.854Z,14.22
2023-05-02T12:42:36.806Z,13.75
2023-05-02T12:43:36.797Z,13.54
2023-05-02T12:44:36.774Z,13.26
2023-05-02T12:45:36.785Z,13.19
2023-05-02T12:46:36.804Z,13.52
2023-05-02T12:47:36.775Z,14.50
2023-05-02T12:48:36.726Z,14.83
2023-05-02T12:49:36.724Z,14.09
2023-05-02T12:50:36.721Z,13.97
2023-05-02T12:51:36.793Z,14.65
2023-05-02T12:52:36.692Z,14.98
2023-05-02T12:53:36.686Z,14.69
2023-05-02T12:54:36.671Z,14.83
2023-05-02T12:55:36.668Z,14.88
2023-05-02T12:56:36.675Z,15.19
2023-05-02T12:57:36.642Z,14.62
2023-05-02T12:58:36.624Z,14.65
2023-05-02T12:59:36.622Z,14.12
2023-05-02T13:00:36.666Z,13.49
2023-05-02T13:01:36.660Z,13.48
2023-05-02T13:02:36.586Z,14.06
2023-05-02T13:03:36.752Z,14.86
2023-05-02T13:04:36.595Z,14.35
2023-05-02T13:05:36.558Z,13.64
2023-05-02T13:06:36.595Z,13.23
2023-05-02T13:07:36.576Z,13.23
2023-05-02T13:08:36.540Z,13.30
2023-05-02T13:09:36.557Z,13.70
2023-05-02T13:10:36.520Z,13.54
2023-05-02T13:11:36.493Z,13.38
2023-05-02T13:12:36.463Z,13.59
2023-05-02T13:13:36.482Z,13.25
2023-05-02T13:14:36.479Z,13.29
2023-05-02T13:15:36.452Z,13.41
2023-05-02T13:16:36.804Z,13.73
2023-05-02T13:17:36.676Z,13.79
2023-05-02T13:18:36.470Z,13.75
2023-05-02T13:19:37.476Z,13.85
2023-05-02T13:20:36.406Z,13.28
2023-05-02T13:21:36.371Z,12.92
2023-05-02T13:22:36.367Z,12.90
2023-05-02T13:23:36.339Z,13.23
2023-05-02T13:24:36.342Z,13.84
2023-05-02T13:25:36.334Z,14.14
2023-05-02T13:26:36.301Z,14.07
2023-05-02T13:27:36.305Z,13.55
2023-05-02T13:28:36.282Z,13.63
2023-05-02T13:29:36.279Z,13.73
2023-05-02T13:30:36.320Z,13.71
2023-05-02T13:31:36.306Z,13.54
2023-05-02T13:32:36.276Z,13.15
2023-05-02T13:33:36.257Z,13.00
2023-05-02T13:34:37.081Z,13.08
2023-05-02T13:35:36.255Z,13.66
2023-05-02T13:36:36.215Z,14.27
2023-05-02T13:37:36.258Z,14.70
2023-05-02T13:38:36.218Z,14.60
2023-05-02T13:39:36.220Z,14.62
2023-05-02T13:40:36.155Z,14.73
2023-05-02T13:41:36.149Z,14.81
2023-05-02T13:42:36.139Z,15.47
2023-05-02T13:43:36.139Z,16.15
2023-05-02T13:44:36.134Z,16.53
2023-05-02T13:45:36.106Z,15.97
2023-05-02T13:46:36.174Z,15.29
2023-05-02T13:47:36.123Z,14.62
2023-05-02T13:48:36.072Z,14.24
2023-05-02T13:49:36.096Z,13.71
2023-05-02T13:50:36.042Z,13.41
2023-05-02T13:51:36.055Z,13.26
2023-05-02T13:52:36.039Z,13.26
2023-05-02T13:53:36.075Z,13.36
2023-05-02T13:54:36.031Z,13.38
2023-05-02T13:55:35.999Z,13.36
2023-05-02T13:56:35.989Z,13.57
2023-05-02T13:57:35.984Z,13.66
2023-05-02T13:58:35.975Z,13.73
2023-05-02T13:59:35.969Z,13.75
2023-05-02T14:00:35.936Z,13.75
2023-05-02T14:01:36.049Z,13.66
2023-05-02T14:02:36.004Z,13.44
2023-05-02T14:03:36.123Z,13.22
2023-05-02T14:04:35.921Z,13.14
2023-05-02T14:05:35.905Z,13.11
2023-05-02T14:06:36.048Z,13.12
2023-05-02T14:07:35.864Z,13.29
2023-05-02T14:08:35.896Z,13.28
2023-05-02T14:09:35.859Z,13.44
2023-05-02T14:10:35.850Z,13.51
2023-05-02T14:11:35.825Z,13.67
2023-05-02T14:12:35.812Z,13.75
2023-05-02T14:13:35.837Z,13.39
2023-05-02T14:14:35.827Z,13.42
2023-05-02T14:15:35.809Z,13.44
2023-05-02T14:16:35.864Z,13.49
2023-05-02T14:17:35.789Z,13.55
2023-05-02T14:18:35.751Z,13.39
2023-05-02T14:19:35.913Z,13.38
2023-05-02T14:20:35.721Z,13.48
2023-05-02T14:21:35.718Z,13.25
2023-05-02T14:22:35.707Z,12.97
2023-05-02T14:23:35.710Z,12.86
2023-05-02T14:24:35.708Z,12.86
2023-05-02T14:25:35.676Z,12.75
2023-05-02T14:26:35.677Z,12.70
2023-05-02T14:27:35.659Z,12.79
2023-05-02T14:28:36.582Z,12.77
2023-05-02T14:29:35.665Z,12.82
2023-05-02T14:30:35.636Z,12.75
2023-05-02T14:31:35.638Z,12.72
2023-05-02T14:32:35.651Z,12.83
2023-05-02T14:33:35.593Z,13.30
2023-05-02T14:34:35.608Z,13.89
2023-05-02T14:35:35.662Z,13.89
2023-05-02T14:36:35.553Z,13.25
2023-05-02T14:37:35.549Z,13.11
2023-05-02T14:38:35.545Z,12.93
2023-05-02T14:39:35.519Z,12.92
2023-05-02T14:40:35.516Z,13.03
2023-05-02T14:41:35.521Z,12.78
2023-05-02T14:42:35.485Z,12.68
2023-05-02T14:43:35.473Z,12.68
2023-05-02T14:44:35.476Z,12.56
2023-05-02T14:45:35.496Z,12.64
2023-05-02T14:46:35.480Z,12.60
2023-05-02T14:47:35.494Z,12.50
2023-05-02T14:48:35.453Z,12.39
2023-05-02T14:49:35.423Z,12.47
2023-05-02T14:50:35.398Z,12.50
2023-05-02T14:51:35.393Z,12.56
2023-05-02T14:52:35.383Z,12.68
2023-05-02T14:53:35.381Z,12.72
2023-05-02T14:54:35.381Z,12.75
2023-05-02T14:55:35.362Z,12.86
2023-05-02T14:56:35.360Z,13.03
2023-05-02T14:57:35.342Z,13.12
2023-05-02T14:58:35.376Z,13.33
2023-05-02T14:59:35.335Z,13.39
2023-05-02T15:00:35.301Z,13.62
2023-05-02T15:01:35.378Z,13.77
2023-05-02T15:02:35.359Z,13.95
2023-05-02T15:03:39.434Z,14.17
2023-05-02T15:04:35.382Z,14.02
2023-05-02T15:05:35.271Z,14.25
2023-05-02T15:06:35.778Z,14.37
2023-05-02T15:07:35.222Z,14.12
2023-05-02T15:08:36.741Z,13.84
2023-05-02T15:09:35.213Z,13.78
2023-05-02T15:10:35.184Z,13.59
2023-05-02T15:11:35.170Z,13.75
2023-05-02T15:12:35.171Z,14.03
2023-05-02T15:13:35.162Z,13.95
2023-05-02T15:14:35.213Z,14.03
2023-05-02T15:15:35.129Z,13.99
2023-05-02T15:16:35.140Z,13.95
2023-05-02T15:17:35.124Z,13.84
2023-05-02T15:18:35.112Z,13.91
2023-05-02T15:19:35.091Z,13.89
2023-05-02T15:20:35.082Z,13.78
2023-05-02T15:21:35.107Z,13.78
2023-05-02T15:22:35.079Z,13.63
2023-05-02T15:23:35.086Z,13.44
2023-05-02T15:24:35.085Z,13.01
2023-05-02T15:25:35.050Z,12.72
2023-05-02T15:26:35.007Z,12.71
2023-05-02T15:27:35.015Z,12.72
2023-05-02T15:28:34.992Z,12.86
2023-05-02T15:29:35.006Z,12.89
2023-05-02T15:30:34.980Z,12.74
2023-05-02T15:31:35.061Z,12.49
2023-05-02T15:32:35.019Z,12.45
2023-05-02T15:33:34.957Z,12.49
2023-05-02T15:34:34.936Z,12.54
2023-05-02T15:35:34.973Z,12.67
2023-05-02T15:36:34.953Z,12.78
2023-05-02T15:37:34.952Z,12.93
2023-05-02T15:38:34.913Z,13.07
2023-05-02T15:39:34.901Z,13.17
2023-05-02T15:40:34.937Z,13.28
2023-05-02T15:41:34.906Z,13.29
2023-05-02T15:42:36.165Z,13.45
2023-05-02T15:43:34.852Z,13.45
2023-05-02T15:44:34.823Z,13.67
2023-05-02T15:45:34.832Z,13.95
2023-05-02T15:46:34.865Z,13.96
2023-05-02T15:47:34.848Z,13.63
2023-05-02T15:48:34.926Z,13.59
2023-05-02T15:49:34.814Z,13.54
2023-05-02T15:50:34.778Z,13.69
2023-05-02T15:51:34.742Z,13.81
2023-05-02T15:52:34.732Z,13.73
2023-05-02T15:53:34.731Z,13.85
2023-05-02T15:54:34.760Z,14.22
2023-05-02T15:55:34.734Z,14.51
2023-05-02T15:56:34.701Z,14.43
2023-05-02T15:57:34.686Z,14.36
2023-05-02T15:58:34.678Z,14.25
2023-05-02T15:59:34.693Z,13.92
2023-05-02T16:00:34.661Z,13.66
2023-05-02T16:01:34.727Z,13.54
2023-05-02T16:02:34.627Z,13.38
2023-05-02T16:03:34.832Z,13.15
2023-05-02T16:04:34.709Z,13.11
2023-05-02T16:05:34.588Z,12.83
2023-05-02T16:06:34.605Z,12.79
2023-05-02T16:07:34.587Z,12.72
2023-05-02T16:08:34.573Z,12.65
2023-05-02T16:09:34.575Z,12.67
2023-05-02T16:10:34.533Z,12.71
2023-05-02T16:11:34.555Z,12.75
2023-05-02T16:12:34.526Z,12.74
2023-05-02T16:13:34.500Z,12.85
2023-05-02T16:14:34.523Z,13.10
2023-05-02T16:15:34.497Z,13.57
2023-05-02T16:16:34.560Z,13.71
2023-05-02T16:17:34.499Z,13.87
2023-05-02T16:18:34.460Z,13.96
2023-05-02T16:19:34.483Z,13.79
2023-05-02T16:20:34.431Z,13.41
2023-05-02T16:21:34.414Z,13.28
2023-05-02T16:22:34.413Z,13.14
2023-05-02T16:23:34.396Z,13.14
2023-05-02T16:24:34.413Z,13.07
2023-05-02T16:25:34.380Z,12.96
2023-05-02T16:26:34.372Z,12.90
2023-05-02T16:27:34.378Z,12.75
2023-05-02T16:28:34.396Z,12.68
2023-05-02T16:29:34.426Z,12.52
2023-05-02T16:30:34.321Z,12.57
2023-05-02T16:31:34.316Z,12.49
2023-05-02T16:32:34.309Z,12.41
2023-05-02T16:33:34.293Z,12.49
2023-05-02T16:34:34.306Z,12.53
2023-05-02T16:35:34.263Z,12.54
2023-05-02T16:36:34.267Z,12.50
2023-05-02T16:37:34.259Z,12.35
2023-05-02T16:38:34.242Z,12.31
2023-05-02T16:39:34.247Z,12.27
2023-05-02T16:40:34.223Z,12.23
2023-05-02T16:41:34.226Z,12.28
2023-05-02T16:42:34.512Z,12.17
2023-05-02T16:43:34.257Z,12.16
2023-05-02T16:44:34.210Z,12.07
2023-05-02T16:45:34.168Z,12.12
2023-05-02T16:46:34.171Z,12.12
2023-05-02T16:47:34.163Z,12.07
2023-05-02T16:48:34.162Z,12.10
2023-05-02T16:49:34.140Z,12.17
2023-05-02T16:50:34.108Z,12.16
2023-05-02T16:51:34.160Z,12.23
2023-05-02T16:52:34.157Z,12.32
2023-05-02T16:53:34.198Z,12.34
2023-05-02T16:54:34.196Z,12.39
2023-05-02T16:55:34.055Z,12.37
2023-05-02T16:56:34.061Z,12.20
2023-05-02T16:57:34.029Z,12.17
2023-05-02T16:58:34.018Z,12.10